world map with STV marked

STV - Airport

This information may not be accurate or current and is not valid for navigation or flight planning. No warranty of fitness for any purpose is made or implied.

flag of India

Donate via PayPal

Additional information is available on the NEW Great Circle Mapper

Location
City:  Surat, Gujarat, India
ICAO / IATA:VASU / STV

Details
Type:Airport (Aerodrome, Airfield)
Latitude:21°06'51"N (21.114061)
Longitude:72°44'30"E (72.741792)
Datum:WGS 1984
Elevation:16 ft (5 m)
Runways:1
Longest:3600 × 100 ft (1097 × 30.5 m)

Time
Timezone:UTC+5:30 (DST+7:30)
Local Time:

Weather
METAR:VASU  141630Z 02004KT 6000 NSC 20/15 Q1015
TAF:VASU  (expired)

Related Locations
Nearby:
Farthest:IPC: 11993 mi / 19301 km
Easter Island (Isla de Pascua, Rapa Nui) [Mataveri Intl], VS, CL

Find:

   beyond  
but within

Other Information
Maps:
Sources:

  


 


Great Circle Mapper   Great Circle Mapper
Great Circle Mapper FAQ   Great Circle Mapper FAQ
  Karl's Home Page
KLSē   KLSē Home
   GC on Facebook
Airlines of the World   Airlines of the World
Donate via PayPal


Copyright © 2004-2017, Karl L. Swartz. All rights reserved.
All trademarks mentioned herein belong to their respective owners.

Please see credits for attribution and copyright information.

Karl Swartz <karl@kls2.com>
  Powered by FreeBSD
Valid HTML 4.01!
Labeled with ICRA
hCard Microformat
Geo Microformat